createdAt,value
2022-08-28T00:00:37.172Z,21.21
2022-08-28T00:03:05.712Z,21.27
2022-08-28T00:05:33.898Z,21.25
2022-08-28T00:08:00.941Z,21.22
2022-08-28T00:10:28.228Z,21.19
2022-08-28T00:12:58.403Z,21.16
2022-08-28T00:15:31.993Z,21.14
2022-08-28T00:17:59.768Z,21.15
2022-08-28T00:20:27.698Z,21.13
2022-08-28T00:22:55.815Z,21.17
2022-08-28T00:25:25.989Z,21.24
2022-08-28T00:27:55.313Z,21.20
2022-08-28T00:30:26.545Z,21.20
2022-08-28T00:32:55.829Z,21.15
2022-08-28T00:35:23.925Z,21.23
2022-08-28T00:37:51.800Z,21.23
2022-08-28T00:40:28.911Z,21.23
2022-08-28T00:43:01.529Z,21.17
2022-08-28T00:45:29.724Z,21.10
2022-08-28T00:47:56.773Z,21.11
2022-08-28T00:50:27.297Z,21.16
2022-08-28T00:53:00.065Z,21.09
2022-08-28T00:55:29.104Z,21.11
2022-08-28T00:57:59.233Z,21.06
2022-08-28T01:00:34.931Z,21.13
2022-08-28T01:03:02.500Z,21.09
2022-08-28T01:05:30.195Z,21.07
2022-08-28T01:07:59.033Z,21.04
2022-08-28T01:10:28.961Z,21.04
2022-08-28T01:12:57.216Z,21.00
2022-08-28T01:15:34.418Z,21.05
2022-08-28T01:18:08.309Z,20.99
2022-08-28T01:20:39.194Z,21.06
2022-08-28T01:23:26.050Z,21.03
2022-08-28T01:25:52.987Z,21.07
2022-08-28T01:28:19.994Z,20.97
2022-08-28T01:30:48.249Z,20.93
2022-08-28T01:33:16.079Z,20.92
2022-08-28T01:35:45.381Z,20.94
2022-08-28T01:38:12.501Z,20.94
2022-08-28T01:40:47.208Z,20.90
2022-08-28T01:43:20.098Z,20.93
2022-08-28T01:45:53.292Z,20.83
2022-08-28T01:48:22.656Z,20.89
2022-08-28T01:50:50.142Z,20.94
2022-08-28T01:53:25.026Z,20.85
2022-08-28T01:55:53.658Z,20.84
2022-08-28T01:58:21.456Z,20.89
2022-08-28T02:00:48.435Z,20.82
2022-08-28T02:03:15.641Z,20.81
2022-08-28T02:05:43.276Z,20.85
2022-08-28T02:08:10.630Z,20.79
2022-08-28T02:10:39.100Z,20.85
2022-08-28T02:13:07.322Z,20.78
2022-08-28T02:15:35.937Z,20.76
2022-08-28T02:18:03.365Z,20.77
2022-08-28T02:20:30.764Z,20.73
2022-08-28T02:22:58.134Z,20.78
2022-08-28T02:25:25.315Z,20.82
2022-08-28T02:27:52.163Z,20.75
2022-08-28T02:30:19.072Z,20.79
2022-08-28T02:32:46.541Z,20.81
2022-08-28T02:35:16.239Z,20.73
2022-08-28T02:37:47.595Z,20.79
2022-08-28T02:40:15.865Z,20.80
2022-08-28T02:42:43.362Z,20.79
2022-08-28T02:45:11.960Z,20.84
2022-08-28T02:47:43.859Z,20.83
2022-08-28T02:50:13.259Z,20.84
2022-08-28T02:52:41.567Z,20.83
2022-08-28T02:55:09.915Z,20.78
2022-08-28T02:57:36.806Z,20.72
2022-08-28T03:00:10.377Z,20.82
2022-08-28T03:02:37.317Z,20.71
2022-08-28T03:05:04.696Z,20.76
2022-08-28T03:07:31.615Z,20.68
2022-08-28T03:09:58.507Z,20.71
2022-08-28T03:12:25.634Z,20.72
2022-08-28T03:14:53.454Z,20.73
2022-08-28T03:17:21.731Z,20.75
2022-08-28T03:19:50.333Z,20.71
2022-08-28T03:22:18.737Z,20.74
2022-08-28T03:24:46.024Z,20.65
2022-08-28T03:27:13.033Z,20.59
2022-08-28T03:29:39.984Z,20.59
2022-08-28T03:32:06.900Z,20.56
2022-08-28T03:34:33.846Z,20.47
2022-08-28T03:37:01.422Z,20.59
2022-08-28T03:39:28.281Z,20.49
2022-08-28T03:41:55.206Z,20.60
2022-08-28T03:44:22.207Z,20.63
2022-08-28T03:46:49.097Z,20.48
2022-08-28T03:49:16.094Z,20.49
2022-08-28T03:51:44.308Z,20.40
2022-08-28T03:54:11.153Z,20.55
2022-08-28T03:56:38.180Z,20.63
2022-08-28T03:59:05.582Z,20.59
2022-08-28T04:01:33.856Z,20.48
2022-08-28T04:04:00.874Z,20.63
2022-08-28T04:06:28.244Z,20.59
2022-08-28T04:08:55.581Z,20.57
2022-08-28T04:11:27.202Z,20.50
2022-08-28T04:13:54.153Z,20.47
2022-08-28T04:16:21.116Z,20.41
2022-08-28T04:18:49.539Z,20.40
2022-08-28T04:21:23.868Z,20.41
2022-08-28T04:23:51.045Z,20.44
2022-08-28T04:26:20.533Z,20.38
2022-08-28T04:28:48.753Z,20.34
2022-08-28T04:31:17.109Z,20.37
2022-08-28T04:33:44.143Z,20.39
2022-08-28T04:36:14.823Z,20.36
2022-08-28T04:38:44.081Z,20.37
2022-08-28T04:41:13.232Z,20.35
2022-08-28T04:43:40.269Z,20.32
2022-08-28T04:46:10.666Z,20.31
2022-08-28T04:48:38.154Z,20.37
2022-08-28T04:51:07.080Z,20.34
2022-08-28T04:53:33.910Z,20.28
2022-08-28T04:56:04.580Z,20.34
2022-08-28T04:58:33.699Z,20.31
2022-08-28T05:01:09.035Z,20.28
2022-08-28T05:03:36.102Z,20.26
2022-08-28T05:06:03.925Z,20.19
2022-08-28T05:08:31.540Z,20.34
2022-08-28T05:10:58.760Z,20.35
2022-08-28T05:13:27.949Z,20.42
2022-08-28T05:15:55.516Z,20.37
2022-08-28T05:18:24.020Z,20.42
2022-08-28T05:20:51.886Z,20.35
2022-08-28T05:23:25.447Z,20.28
2022-08-28T05:25:53.137Z,20.29
2022-08-28T05:28:20.906Z,20.31
2022-08-28T05:30:50.234Z,20.36
2022-08-28T05:33:17.288Z,20.29
2022-08-28T05:35:45.638Z,20.22
2022-08-28T05:38:14.446Z,20.24
2022-08-28T05:40:44.087Z,20.22
2022-08-28T05:43:12.169Z,20.33
2022-08-28T05:45:39.100Z,20.21
2022-08-28T05:48:06.303Z,20.23
2022-08-28T05:50:33.590Z,20.22
2022-08-28T05:53:01.625Z,20.18
2022-08-28T05:55:28.582Z,20.21
2022-08-28T05:57:55.405Z,20.27
2022-08-28T06:00:22.307Z,20.22
2022-08-28T06:02:49.152Z,20.30
2022-08-28T06:05:17.572Z,20.23
2022-08-28T06:07:44.452Z,20.24
2022-08-28T06:10:11.362Z,20.29
2022-08-28T06:12:38.425Z,20.29
2022-08-28T06:15:06.193Z,20.30
2022-08-28T06:17:33.195Z,20.28
2022-08-28T06:20:00.069Z,20.30
2022-08-28T06:22:26.950Z,20.33
2022-08-28T06:24:54.131Z,20.39
2022-08-28T06:27:20.985Z,20.38
2022-08-28T06:29:47.890Z,20.38
2022-08-28T06:32:14.846Z,20.39
2022-08-28T06:34:41.899Z,20.37
2022-08-28T06:37:10.066Z,20.36
2022-08-28T06:39:36.997Z,20.40
2022-08-28T06:42:05.631Z,20.40
2022-08-28T06:44:32.779Z,20.39
2022-08-28T06:47:00.653Z,20.42
2022-08-28T06:49:27.566Z,20.41
2022-08-28T06:51:56.055Z,20.41
2022-08-28T06:54:23.640Z,20.43
2022-08-28T06:56:51.820Z,20.48
2022-08-28T06:59:18.830Z,20.50
2022-08-28T07:01:45.769Z,20.52
2022-08-28T07:04:14.827Z,20.67
2022-08-28T07:06:47.103Z,20.64
2022-08-28T07:09:15.352Z,20.79
2022-08-28T07:11:44.959Z,20.76
2022-08-28T07:14:12.090Z,20.76
2022-08-28T07:16:39.283Z,20.78
2022-08-28T07:19:11.355Z,20.82
2022-08-28T07:21:40.481Z,20.90
2022-08-28T07:24:08.921Z,20.93
2022-08-28T07:26:35.947Z,20.98
2022-08-28T07:29:10.520Z,20.96
2022-08-28T07:31:44.526Z,21.00
2022-08-28T07:34:12.761Z,21.06
2022-08-28T07:36:40.023Z,21.06
2022-08-28T07:39:08.522Z,21.06
2022-08-28T07:41:39.433Z,21.07
2022-08-28T07:44:26.163Z,21.08
2022-08-28T07:46:57.932Z,21.13
2022-08-28T07:49:25.674Z,21.16
2022-08-28T07:51:54.177Z,21.14
2022-08-28T07:54:22.037Z,21.18
2022-08-28T07:56:48.954Z,21.24
2022-08-28T07:59:19.254Z,21.28
2022-08-28T08:01:48.328Z,21.33
2022-08-28T08:04:17.597Z,21.39
2022-08-28T08:06:45.287Z,21.45
2022-08-28T08:09:15.781Z,21.48
2022-08-28T08:11:43.224Z,21.54
2022-08-28T08:14:11.092Z,21.64
2022-08-28T08:16:41.086Z,21.70
2022-08-28T08:19:14.178Z,21.75
2022-08-28T08:21:46.049Z,21.81
2022-08-28T08:24:21.183Z,21.87
2022-08-28T08:26:56.499Z,21.92
2022-08-28T08:29:27.557Z,22.02
2022-08-28T08:31:57.345Z,22.04
2022-08-28T08:34:24.344Z,22.06
2022-08-28T08:36:51.481Z,22.10
2022-08-28T08:39:18.505Z,22.11
2022-08-28T08:41:48.591Z,22.11
2022-08-28T08:44:33.945Z,22.15
2022-08-28T08:47:19.665Z,22.19
2022-08-28T08:49:57.378Z,22.24
2022-08-28T08:52:33.552Z,22.26
2022-08-28T08:55:17.749Z,22.31
2022-08-28T08:57:49.196Z,22.36
2022-08-28T09:00:17.200Z,22.39
2022-08-28T09:02:54.332Z,22.43
2022-08-28T09:05:26.846Z,22.44
2022-08-28T09:07:59.327Z,22.52
2022-08-28T09:10:36.960Z,22.54
2022-08-28T09:13:13.800Z,22.56
2022-08-28T09:15:47.538Z,22.55
2022-08-28T09:18:27.763Z,22.57
2022-08-28T09:20:57.275Z,22.55
2022-08-28T09:23:32.709Z,22.58
2022-08-28T09:26:03.919Z,22.58
2022-08-28T09:28:38.580Z,22.60
2022-08-28T09:31:14.407Z,22.60
2022-08-28T09:33:45.309Z,22.61
2022-08-28T09:36:34.669Z,22.63
2022-08-28T09:39:35.822Z,22.64
2022-08-28T09:42:44.073Z,22.70
2022-08-28T09:45:16.652Z,22.76
2022-08-28T09:47:51.679Z,22.77
2022-08-28T09:50:41.004Z,22.80
2022-08-28T09:53:10.651Z,22.84
2022-08-28T09:55:52.736Z,22.89
2022-08-28T09:58:20.960Z,22.91
2022-08-28T10:00:57.308Z,22.97
2022-08-28T10:03:33.941Z,23.01
2022-08-28T10:06:17.811Z,23.07
2022-08-28T10:08:55.216Z,23.11
2022-08-28T10:11:44.586Z,23.22
2022-08-28T10:14:24.339Z,23.27
2022-08-28T10:17:03.332Z,23.35
2022-08-28T10:19:54.007Z,23.42
2022-08-28T10:22:59.243Z,23.49
2022-08-28T10:25:33.213Z,23.56
2022-08-28T10:28:21.297Z,23.60
2022-08-28T10:31:20.850Z,23.66
2022-08-28T10:34:32.823Z,23.73
2022-08-28T10:37:24.569Z,23.78
2022-08-28T10:39:55.069Z,23.85
2022-08-28T10:42:44.737Z,23.91
2022-08-28T10:45:17.229Z,23.97
2022-08-28T10:47:47.435Z,24.01
2022-08-28T10:50:50.996Z,24.07
2022-08-28T10:53:23.405Z,24.15
2022-08-28T10:55:57.660Z,24.22
2022-08-28T10:58:27.219Z,24.29
2022-08-28T11:00:56.333Z,24.33
2022-08-28T11:03:34.279Z,24.39
2022-08-28T11:06:11.825Z,24.44
2022-08-28T11:08:39.964Z,24.49
2022-08-28T11:11:14.975Z,24.55
2022-08-28T11:13:51.518Z,24.62
2022-08-28T11:16:24.854Z,24.72
2022-08-28T11:19:14.494Z,24.79
2022-08-28T11:21:46.793Z,24.88
2022-08-28T11:24:29.108Z,24.93
2022-08-28T11:27:06.729Z,24.98
2022-08-28T11:30:04.112Z,25.01
2022-08-28T11:32:33.944Z,25.08
2022-08-28T11:35:29.654Z,25.13
2022-08-28T11:37:58.482Z,25.17
2022-08-28T11:40:28.455Z,25.19
2022-08-28T11:43:16.213Z,25.23
2022-08-28T11:45:45.847Z,25.25
2022-08-28T11:48:28.680Z,25.28
2022-08-28T11:51:04.029Z,25.30
2022-08-28T11:53:44.282Z,25.29
2022-08-28T11:56:31.832Z,25.26
2022-08-28T11:59:20.657Z,25.21
2022-08-28T12:01:49.532Z,25.17
2022-08-28T12:04:19.130Z,25.15
2022-08-28T12:06:47.561Z,25.17
2022-08-28T12:09:26.685Z,25.20
2022-08-28T12:11:59.418Z,25.20
2022-08-28T12:14:26.238Z,25.21
2022-08-28T12:16:59.195Z,25.21
2022-08-28T12:19:55.952Z,25.21
2022-08-28T12:22:26.581Z,25.22
2022-08-28T12:25:02.779Z,25.24
2022-08-28T12:27:29.975Z,25.26
2022-08-28T12:30:00.067Z,25.28
2022-08-28T12:32:54.508Z,25.27
2022-08-28T12:35:24.079Z,25.30
2022-08-28T12:37:54.070Z,25.31
2022-08-28T12:40:31.631Z,25.34
2022-08-28T12:43:05.861Z,25.39
2022-08-28T12:45:52.331Z,25.42
2022-08-28T12:48:47.308Z,25.45
2022-08-28T12:51:19.412Z,25.47
2022-08-28T12:53:49.091Z,25.49
2022-08-28T12:56:18.739Z,25.52
2022-08-28T12:58:46.264Z,25.53
2022-08-28T13:01:32.443Z,25.52
2022-08-28T13:04:02.572Z,25.57
2022-08-28T13:06:31.695Z,25.60
2022-08-28T13:09:15.966Z,25.61
2022-08-28T13:11:47.696Z,25.61
2022-08-28T13:14:34.526Z,25.61
2022-08-28T13:17:01.624Z,25.62
2022-08-28T13:19:30.575Z,25.63
2022-08-28T13:22:01.997Z,25.61
2022-08-28T13:24:31.485Z,25.61
2022-08-28T13:27:16.585Z,25.57
2022-08-28T13:30:08.711Z,25.56
2022-08-28T13:32:39.056Z,25.51
2022-08-28T13:35:32.837Z,25.45
2022-08-28T13:38:02.479Z,25.42
2022-08-28T13:40:57.331Z,25.38
2022-08-28T13:43:27.717Z,25.34
2022-08-28T13:45:54.742Z,25.31
2022-08-28T13:48:23.815Z,25.30
2022-08-28T13:51:16.391Z,25.28
2022-08-28T13:53:48.383Z,25.25
2022-08-28T13:56:17.144Z,25.26
2022-08-28T13:58:47.889Z,25.26
2022-08-28T14:01:44.532Z,25.26
2022-08-28T14:04:13.423Z,25.28
2022-08-28T14:06:44.192Z,25.29
2022-08-28T14:09:17.493Z,25.33
2022-08-28T14:11:46.623Z,25.36
2022-08-28T14:14:13.484Z,25.40
2022-08-28T14:16:41.027Z,25.46
2022-08-28T14:19:08.439Z,25.52
2022-08-28T14:21:37.077Z,25.55
2022-08-28T14:24:04.616Z,25.59
2022-08-28T14:26:31.924Z,25.62
2022-08-28T14:29:00.255Z,25.63
2022-08-28T14:31:27.776Z,25.65
2022-08-28T14:33:55.504Z,25.64
2022-08-28T14:36:25.927Z,25.64
2022-08-28T14:38:54.611Z,25.63
2022-08-28T14:41:25.932Z,25.63
2022-08-28T14:43:53.937Z,25.63
2022-08-28T14:46:23.525Z,25.61
2022-08-28T14:48:50.734Z,25.63
2022-08-28T14:51:18.493Z,25.63
2022-08-28T14:53:45.384Z,25.64
2022-08-28T14:56:12.284Z,25.65
2022-08-28T14:58:39.508Z,25.67
2022-08-28T15:01:07.378Z,25.69
2022-08-28T15:03:34.483Z,25.72
2022-08-28T15:06:03.397Z,25.74
2022-08-28T15:08:30.703Z,25.75
2022-08-28T15:10:58.129Z,25.76
2022-08-28T15:13:25.219Z,25.79
2022-08-28T15:16:15.559Z,25.79
2022-08-28T15:18:43.361Z,25.80
2022-08-28T15:21:41.495Z,25.79
2022-08-28T15:24:10.064Z,25.79
2022-08-28T15:26:38.053Z,25.76
2022-08-28T15:29:07.188Z,25.76
2022-08-28T15:31:36.842Z,25.73
2022-08-28T15:34:13.425Z,25.71
2022-08-28T15:36:41.369Z,25.67
2022-08-28T15:39:28.130Z,25.64
2022-08-28T15:41:56.025Z,25.60
2022-08-28T15:44:23.311Z,25.58
2022-08-28T15:47:00.056Z,25.56
2022-08-28T15:49:29.741Z,25.54
2022-08-28T15:51:59.249Z,25.55
2022-08-28T15:54:26.766Z,25.56
2022-08-28T15:56:54.012Z,25.57
2022-08-28T15:59:22.128Z,25.60
2022-08-28T16:01:50.741Z,25.58
2022-08-28T16:04:18.099Z,25.58
2022-08-28T16:06:46.150Z,25.58
2022-08-28T16:09:13.579Z,25.57
2022-08-28T16:11:42.714Z,25.58
2022-08-28T16:14:16.817Z,25.57
2022-08-28T16:16:46.656Z,25.57
2022-08-28T16:19:17.894Z,25.55
2022-08-28T16:21:44.767Z,25.53
2022-08-28T16:24:11.696Z,25.52
2022-08-28T16:26:38.560Z,25.51
2022-08-28T16:29:05.449Z,25.50
2022-08-28T16:31:34.372Z,25.48
2022-08-28T16:34:03.177Z,25.48
2022-08-28T16:36:31.238Z,25.47
2022-08-28T16:39:03.682Z,25.47
2022-08-28T16:41:31.865Z,25.46
2022-08-28T16:43:59.475Z,25.46
2022-08-28T16:46:27.613Z,25.46
2022-08-28T16:48:54.910Z,25.45
2022-08-28T16:51:27.081Z,25.45
2022-08-28T16:53:54.831Z,25.45
2022-08-28T16:56:23.777Z,25.45
2022-08-28T16:58:53.102Z,25.43
2022-08-28T17:01:24.026Z,25.42
2022-08-28T17:03:53.054Z,25.42
2022-08-28T17:06:23.588Z,25.42
2022-08-28T17:08:56.465Z,25.43
2022-08-28T17:11:24.711Z,25.42
2022-08-28T17:13:51.567Z,25.41
2022-08-28T17:16:19.454Z,25.41
2022-08-28T17:18:48.340Z,25.41
2022-08-28T17:21:38.734Z,25.40
2022-08-28T17:24:05.940Z,25.37
2022-08-28T17:26:32.955Z,25.34
2022-08-28T17:28:59.796Z,25.31
2022-08-28T17:31:26.736Z,25.28
2022-08-28T17:33:53.754Z,25.27
2022-08-28T17:36:25.646Z,25.22
2022-08-28T17:39:01.769Z,25.19
2022-08-28T17:41:28.662Z,25.15
2022-08-28T17:43:55.664Z,25.12
2022-08-28T17:46:22.787Z,25.09
2022-08-28T17:48:55.856Z,25.05
2022-08-28T17:51:33.156Z,25.03
2022-08-28T17:54:16.881Z,25.00
2022-08-28T17:56:45.085Z,24.97
2022-08-28T17:59:12.271Z,24.93
2022-08-28T18:01:39.306Z,24.90
2022-08-28T18:04:06.253Z,24.88
2022-08-28T18:06:33.488Z,24.85
2022-08-28T18:09:00.667Z,24.82
2022-08-28T18:11:28.438Z,24.80
2022-08-28T18:13:55.393Z,24.76
2022-08-28T18:16:23.265Z,24.72
2022-08-28T18:18:52.432Z,24.70
2022-08-28T18:21:20.272Z,24.66
2022-08-28T18:23:47.196Z,24.63
2022-08-28T18:26:14.099Z,24.59
2022-08-28T18:28:41.249Z,24.56
2022-08-28T18:31:08.338Z,24.52
2022-08-28T18:33:37.293Z,24.49
2022-08-28T18:36:07.330Z,24.44
2022-08-28T18:38:35.731Z,24.40
2022-08-28T18:41:03.859Z,24.38
2022-08-28T18:43:30.898Z,24.35
2022-08-28T18:46:00.111Z,24.31
2022-08-28T18:48:27.480Z,24.26
2022-08-28T18:50:54.331Z,24.23
2022-08-28T18:53:22.414Z,24.19
2022-08-28T18:55:52.826Z,24.17
2022-08-28T18:58:22.008Z,24.15
2022-08-28T19:00:49.686Z,24.10
2022-08-28T19:03:16.578Z,24.06
2022-08-28T19:05:43.509Z,24.02
2022-08-28T19:08:10.476Z,24.03
2022-08-28T19:10:38.268Z,24.01
2022-08-28T19:13:05.951Z,23.98
2022-08-28T19:15:33.828Z,23.94
2022-08-28T19:18:01.535Z,23.91
2022-08-28T19:20:29.309Z,23.91
2022-08-28T19:22:57.554Z,23.90
2022-08-28T19:25:28.365Z,23.89
2022-08-28T19:27:59.870Z,23.82
2022-08-28T19:30:33.175Z,23.76
2022-08-28T19:33:02.530Z,23.76
2022-08-28T19:35:29.453Z,23.76
2022-08-28T19:37:56.556Z,23.64
2022-08-28T19:40:23.599Z,23.62
2022-08-28T19:42:50.569Z,23.61
2022-08-28T19:45:18.102Z,23.59
2022-08-28T19:47:45.125Z,23.56
2022-08-28T19:50:12.800Z,23.52
2022-08-28T19:52:40.518Z,23.49
2022-08-28T19:55:08.106Z,23.42
2022-08-28T19:57:35.386Z,23.36
2022-08-28T20:00:04.084Z,23.34
2022-08-28T20:02:31.183Z,23.29
2022-08-28T20:04:58.072Z,23.33
2022-08-28T20:07:25.242Z,23.21
2022-08-28T20:09:52.494Z,23.24
2022-08-28T20:12:20.109Z,23.17
2022-08-28T20:14:47.575Z,23.10
2022-08-28T20:17:14.522Z,23.08
2022-08-28T20:19:41.669Z,23.08
2022-08-28T20:22:08.719Z,23.03
2022-08-28T20:24:35.586Z,23.00
2022-08-28T20:27:02.457Z,22.99
2022-08-28T20:29:29.472Z,22.96
2022-08-28T20:31:56.805Z,22.90
2022-08-28T20:34:24.659Z,22.93
2022-08-28T20:36:51.994Z,22.92
2022-08-28T20:39:20.473Z,22.92
2022-08-28T20:41:48.256Z,22.92
2022-08-28T20:44:18.059Z,22.82
2022-08-28T20:46:51.549Z,22.78
2022-08-28T20:49:25.353Z,22.69
2022-08-28T20:52:03.968Z,22.67
2022-08-28T20:54:42.742Z,22.60
2022-08-28T20:57:13.195Z,22.57
2022-08-28T20:59:43.213Z,22.54
2022-08-28T21:02:15.689Z,22.60
2022-08-28T21:04:44.607Z,22.63
2022-08-28T21:07:14.194Z,22.59
2022-08-28T21:10:04.231Z,22.52
2022-08-28T21:12:30.395Z,22.48
2022-08-28T21:14:59.212Z,22.45
2022-08-28T21:17:29.868Z,22.45
2022-08-28T21:20:04.246Z,22.48
2022-08-28T21:22:41.964Z,22.44
2022-08-28T21:25:11.556Z,22.46
2022-08-28T21:27:38.597Z,22.45
2022-08-28T21:30:07.853Z,22.41
2022-08-28T21:32:36.929Z,22.39
2022-08-28T21:35:06.700Z,22.37
2022-08-28T21:37:33.697Z,22.44
2022-08-28T21:40:00.959Z,22.41
2022-08-28T21:42:29.065Z,22.39
2022-08-28T21:44:55.891Z,22.34
2022-08-28T21:47:23.860Z,22.36
2022-08-28T21:49:52.418Z,22.34
2022-08-28T21:52:22.079Z,22.26
2022-08-28T21:54:49.272Z,22.28
2022-08-28T21:57:17.889Z,22.23
2022-08-28T21:59:44.743Z,22.21
2022-08-28T22:02:11.658Z,22.09
2022-08-28T22:04:38.887Z,22.08
2022-08-28T22:07:06.727Z,22.09
2022-08-28T22:09:33.584Z,22.05
2022-08-28T22:12:00.598Z,22.08
2022-08-28T22:14:28.727Z,22.01
2022-08-28T22:16:55.818Z,22.06
2022-08-28T22:19:22.808Z,21.97
2022-08-28T22:22:08.478Z,21.95
2022-08-28T22:24:36.767Z,21.95
2022-08-28T22:27:04.437Z,21.92
2022-08-28T22:29:36.605Z,21.92
2022-08-28T22:32:07.827Z,21.88
2022-08-28T22:34:43.586Z,21.88
2022-08-28T22:37:11.799Z,21.94
2022-08-28T22:39:39.696Z,21.90
2022-08-28T22:42:06.838Z,21.91
2022-08-28T22:44:33.981Z,21.91
2022-08-28T22:47:00.813Z,21.81
2022-08-28T22:49:27.675Z,21.74
2022-08-28T22:51:54.601Z,21.83
2022-08-28T22:54:21.453Z,21.77
2022-08-28T22:56:48.348Z,21.77
2022-08-28T22:59:15.285Z,21.80
2022-08-28T23:01:43.044Z,21.83
2022-08-28T23:04:11.070Z,21.79
2022-08-28T23:06:41.084Z,21.75
2022-08-28T23:09:09.243Z,21.79
2022-08-28T23:11:36.928Z,21.78
2022-08-28T23:14:05.545Z,21.80
2022-08-28T23:16:33.117Z,21.75
2022-08-28T23:19:09.294Z,21.77
2022-08-28T23:21:40.822Z,21.76
2022-08-28T23:24:12.163Z,21.86
2022-08-28T23:26:39.117Z,21.87
2022-08-28T23:29:06.049Z,21.81
2022-08-28T23:31:32.991Z,21.82
2022-08-28T23:34:00.270Z,21.81
2022-08-28T23:36:27.155Z,21.75
2022-08-28T23:38:54.043Z,21.71
2022-08-28T23:41:21.057Z,21.72
2022-08-28T23:43:49.033Z,21.80
2022-08-28T23:46:19.639Z,21.91
2022-08-28T23:48:49.692Z,21.83
2022-08-28T23:51:17.516Z,21.81
2022-08-28T23:53:45.475Z,21.87
2022-08-28T23:56:12.811Z,21.81
2022-08-28T23:58:43.347Z,21.77
